| time (UTC) | temp F | wind direction | speed MPH | gust MPH | rain 1hr in | rain 24hr in | rain mn in | humidity % | barometer mb |
| 20260507225341 | 74 | 346 | 2.0 | 6.0 | 0.00 | 0.00 | 0.00 | 24 | 1007.8 |
| 20260507224334 | 74 | 348 | 1.0 | 6.0 | 0.00 | 0.00 | 0.00 | 24 | 1007.8 |
| 20260507223331 | 73 | 346 | 2.0 | 6.0 | 0.00 | 0.00 | 0.00 | 27 | 1008.0 |
| 20260507222336 | 72 | 326 | 2.0 | 8.0 | 0.00 | 0.00 | 0.00 | 26 | 1008.0 |
| 20260507221339 | 73 | 348 | 5.0 | 9.0 | 0.00 | 0.00 | 0.00 | 26 | 1007.9 |
| 20260507220329 | 73 | 331 | 2.0 | 10.0 | 0.00 | 0.00 | 0.00 | 26 | 1008.0 |
| 20260507215402 | 72 | 10 | 2.0 | 7.0 | 0.00 | 0.00 | 0.00 | 26 | 1008.2 |
| 20260507214326 | 73 | 10 | 3.0 | 8.0 | 0.00 | 0.00 | 0.00 | 26 | 1008.1 |
| 20260507213357 | 73 | 343 | 5.0 | 11.0 | 0.00 | 0.00 | 0.00 | 26 | 1008.1 |
| 20260507212347 | 73 | 15 | 1.0 | 7.0 | 0.00 | 0.00 | 0.00 | 23 | 1008.2 |
| 20260507211400 | 74 | 23 | 3.0 | 8.0 | 0.00 | 0.00 | 0.00 | 24 | 1008.3 |
| 20260507210347 | 74 | 10 | 2.0 | 6.0 | 0.00 | 0.00 | 0.00 | 24 | 1008.4 |
| 20260507205330 | 73 | 4 | 0.0 | 8.0 | 0.00 | 0.00 | 0.00 | 28 | 1008.3 |
| 20260507204403 | 73 | 5 | 2.0 | 11.0 | 0.00 | 0.00 | 0.00 | 29 | 1008.5 |
| 20260507203351 | 73 | 348 | 2.0 | 7.0 | 0.00 | 0.00 | 0.00 | 27 | 1008.6 |
| 20260507202335 | 73 | 227 | 2.0 | 8.0 | 0.00 | 0.00 | 0.00 | 27 | 1008.6 |
| 20260507201341 | 73 | 161 | 3.0 | 11.0 | 0.00 | 0.00 | 0.00 | 29 | 1008.8 |
| 20260507200350 | 73 | 56 | 1.0 | 6.0 | 0.00 | 0.00 | 0.00 | 27 | 1008.8 |
| 20260507195338 | 73 | 175 | 3.0 | 8.0 | 0.00 | 0.00 | 0.00 | 31 | 1008.8 |
| 20260507194327 | 72 | 140 | 4.0 | 6.0 | 0.00 | 0.00 | 0.00 | 29 | 1008.7 |
| 20260507193401 | 73 | 15 | 2.0 | 5.0 | 0.00 | 0.00 | 0.00 | 32 | 1008.7 |
| 20260507192323 | 72 | 221 | 3.0 | 8.0 | 0.00 | 0.00 | 0.00 | 34 | 1008.7 |
| 20260507191328 | 72 | 74 | 2.0 | 8.0 | 0.00 | 0.00 | 0.00 | 30 | 1008.8 |
| 20260507190338 | 72 | 183 | 4.0 | 10.0 | 0.00 | 0.00 | 0.00 | 29 | 1008.9 |
| 20260507185329 | 72 | 241 | 4.0 | 11.0 | 0.00 | 0.00 | 0.00 | 32 | 1008.9 |
| 20260507184337 | 71 | 347 | 3.0 | 11.0 | 0.00 | 0.00 | 0.00 | 32 | 1009.0 |
| 20260507183347 | 71 | 152 | 1.0 | 4.0 | 0.00 | 0.00 | 0.00 | 34 | 1009.0 |
| 20260507182329 | 70 | 100 | 4.0 | 13.0 | 0.00 | 0.00 | 0.00 | 32 | 1009.3 |
| 20260507181336 | 70 | 354 | 2.0 | 7.0 | 0.00 | 0.00 | 0.00 | 34 | 1009.4 |
| 20260507180326 | 70 | 219 | 2.0 | 6.0 | 0.00 | 0.00 | 0.00 | 34 | 1009.5 |
| 20260507175332 | 69 | 137 | 3.0 | 9.0 | 0.00 | 0.00 | 0.00 | 33 | 1009.7 |
| 20260507174405 | 69 | 173 | 5.0 | 9.0 | 0.00 | 0.00 | 0.00 | 33 | 1009.9 |
| 20260507173334 | 69 | 112 | 3.0 | 10.0 | 0.00 | 0.00 | 0.00 | 35 | 1009.8 |
| 20260507172346 | 68 | 162 | 4.0 | 11.0 | 0.00 | 0.00 | 0.00 | 34 | 1010.0 |
| 20260507171356 | 68 | 99 | 3.0 | 9.0 | 0.00 | 0.00 | 0.00 | 33 | 1010.1 |
| 20260507170327 | 68 | 262 | 2.0 | 8.0 | 0.00 | 0.00 | 0.00 | 34 | 1010.2 |
| 20260507165337 | 68 | 48 | 2.0 | 7.0 | 0.00 | 0.00 | 0.00 | 34 | 1010.2 |
| 20260507164342 | 67 | 195 | 5.0 | 9.0 | 0.00 | 0.00 | 0.00 | 33 | 1010.4 |
| 20260507163330 | 66 | 149 | 2.0 | 6.0 | 0.00 | 0.00 | 0.00 | 36 | 1010.4 |
| 20260507162342 | 65 | 16 | 4.0 | 9.0 | 0.00 | 0.00 | 0.00 | 37 | 1010.6 |
| 20260507161327 | 65 | 169 | 4.0 | 7.0 | 0.00 | 0.00 | 0.00 | 40 | 1010.8 |
| 20260507160338 | 64 | 115 | 4.0 | 10.0 | 0.00 | 0.00 | 0.00 | 40 | 1010.9 |
| 20260507155329 | 63 | 141 | 2.0 | 5.0 | 0.00 | 0.00 | 0.00 | 45 | 1011.1 |
| 20260507154404 | 62 | 204 | 3.0 | 7.0 | 0.00 | 0.00 | 0.00 | 46 | 1011.3 |
| 20260507153351 | 61 | 204 | 2.0 | 10.0 | 0.00 | 0.00 | 0.00 | 48 | 1011.3 |
| 20260507152330 | 60 | 162 | 2.0 | 5.0 | 0.00 | 0.00 | 0.00 | 50 | 1011.5 |
| 20260507151330 | 60 | 228 | 1.0 | 7.0 | 0.00 | 0.00 | 0.00 | 52 | 1011.6 |
| 20260507150337 | 59 | 114 | 3.0 | 8.0 | 0.00 | 0.00 | 0.00 | 53 | 1011.6 |
| 20260507145326 | 58 | 131 | 2.0 | 6.0 | 0.00 | 0.00 | 0.00 | 55 | 1011.8 |
| 20260507144357 | 56 | 102 | 2.0 | 7.0 | 0.00 | 0.00 | 0.00 | 56 | 1011.9 |
| 20260507143324 | 56 | 96 | 1.0 | 7.0 | 0.00 | 0.00 | 0.00 | 59 | 1011.9 |
| 20260507142335 | 55 | 154 | 2.0 | 6.0 | 0.00 | 0.00 | 0.00 | 61 | 1012.0 |
| 20260507141338 | 54 | 231 | 3.0 | 7.0 | 0.00 | 0.00 | 0.00 | 61 | 1012.0 |
| 20260507140327 | 53 | 176 | 3.0 | 8.0 | 0.00 | 0.00 | 0.00 | 63 | 1012.1 |
| 20260507135341 | 53 | 240 | 4.0 | 7.0 | 0.00 | 0.00 | 0.00 | 64 | 1012.2 |
| 20260507134340 | 52 | 172 | 2.0 | 6.0 | 0.00 | 0.00 | 0.00 | 66 | 1012.2 |
| 20260507133347 | 51 | 264 | 2.0 | 7.0 | 0.00 | 0.00 | 0.00 | 67 | 1012.2 |
| 20260507132348 | 50 | 132 | 2.0 | 7.0 | 0.00 | 0.00 | 0.00 | 68 | 1012.2 |
| 20260507131359 | 50 | 197 | 3.0 | 8.0 | 0.00 | 0.00 | 0.00 | 70 | 1012.3 |
| 20260507130327 | 49 | 159 | 2.0 | 6.0 | 0.00 | 0.00 | 0.00 | 71 | 1012.4 |
| 20260507125334 | 49 | 147 | 2.0 | 8.0 | 0.00 | 0.00 | 0.00 | 72 | 1012.6 |
| 20260507124336 | 48 | 289 | 1.0 | 6.0 | 0.00 | 0.00 | 0.00 | 73 | 1012.6 |
| 20260507123345 | 48 | 205 | 2.0 | 8.0 | 0.00 | 0.00 | 0.00 | 73 | 1012.5 |
| 20260507122330 | 47 | 171 | 2.0 | 8.0 | 0.00 | 0.00 | 0.00 | 74 | 1012.5 |
| 20260507121339 | 47 | 158 | 2.0 | 6.0 | 0.00 | 0.00 | 0.00 | 75 | 1012.6 |
| 20260507120334 | 46 | 196 | 2.0 | 7.0 | 0.00 | 0.00 | 0.00 | 75 | 1012.6 |
| 20260507115328 | 46 | 159 | 1.0 | 5.0 | 0.00 | 0.00 | 0.00 | 75 | 1012.5 |
| 20260507114329 | 46 | 356 | 2.0 | 4.0 | 0.00 | 0.00 | 0.00 | 74 | 1012.5 |
| 20260507113336 | 46 | 277 | 1.0 | 4.0 | 0.00 | 0.00 | 0.00 | 74 | 1012.5 |
| 20260507112335 | 46 | 133 | 1.0 | 7.0 | 0.00 | 0.00 | 0.00 | 74 | 1012.5 |
| 20260507111408 | 47 | 93 | 2.0 | 7.0 | 0.00 | 0.00 | 0.00 | 73 | 1012.5 |
| 20260507110325 | 47 | 155 | 1.0 | 5.0 | 0.00 | 0.00 | 0.00 | 73 | 1012.5 |
| 20260507105338 | 47 | 171 | 2.0 | 6.0 | 0.00 | 0.00 | 0.00 | 73 | 1012.4 |
| 20260507104325 | 47 | 125 | 1.0 | 8.0 | 0.00 | 0.00 | 0.00 | 73 | 1012.4 |
| 20260507103353 | 47 | 185 | 1.0 | 5.0 | 0.00 | 0.00 | 0.00 | 73 | 1012.4 |
| 20260507102324 | 47 | 142 | 1.0 | 7.0 | 0.00 | 0.00 | 0.00 | 72 | 1012.4 |
| 20260507101358 | 47 | 150 | 2.0 | 6.0 | 0.00 | 0.00 | 0.00 | 72 | 1012.4 |
| 20260507100326 | 47 | 199 | 2.0 | 7.0 | 0.00 | 0.00 | 0.00 | 72 | 1012.4 |
| 20260507095336 | 47 | 187 | 2.0 | 6.0 | 0.00 | 0.00 | 0.00 | 72 | 1012.6 |
| 20260507094539 | 47 | 149 | 2.0 | 6.0 | 0.00 | 0.00 | 0.00 | 71 | 1012.6 |
| 20260507093346 | 47 | 128 | 2.0 | 6.0 | 0.00 | 0.00 | 0.00 | 71 | 1012.7 |
| 20260507092331 | 48 | 156 | 1.0 | 4.0 | 0.00 | 0.00 | 0.00 | 70 | 1012.9 |
| 20260507091332 | 48 | 126 | 2.0 | 4.0 | 0.00 | 0.00 | 0.00 | 70 | 1012.9 |
| 20260507090343 | 48 | 169 | 1.0 | 5.0 | 0.00 | 0.00 | 0.00 | 69 | 1013.0 |
| 20260507085334 | 48 | 188 | 1.0 | 4.0 | 0.00 | 0.00 | 0.00 | 68 | 1013.1 |
| 20260507084340 | 48 | 211 | 2.0 | 5.0 | 0.00 | 0.00 | 0.00 | 68 | 1013.2 |
| 20260507083350 | 48 | 99 | 2.0 | 5.0 | 0.00 | 0.00 | 0.00 | 67 | 1013.3 |
| 20260507082330 | 48 | 134 | 2.0 | 5.0 | 0.00 | 0.00 | 0.00 | 66 | 1013.4 |
| 20260507081334 | 48 | 166 | 1.0 | 5.0 | 0.00 | 0.00 | 0.00 | 65 | 1013.5 |
| 20260507080323 | 48 | 170 | 1.0 | 4.0 | 0.00 | 0.00 | 0.00 | 64 | 1013.7 |
| 20260507075337 | 48 | 205 | 2.0 | 5.0 | 0.00 | 0.00 | 0.00 | 63 | 1013.8 |
| 20260507074404 | 48 | 244 | 1.0 | 5.0 | 0.00 | 0.00 | 0.00 | 63 | 1013.8 |
| 20260507073330 | 47 | 165 | 0.0 | 2.0 | 0.00 | 0.00 | 0.00 | 61 | 1013.9 |
| 20260507072323 | 47 | 150 | 0.0 | 2.0 | 0.00 | 0.00 | 0.00 | 60 | 1014.1 |
| 20260507071400 | 47 | 229 | 1.0 | 3.0 | 0.00 | 0.00 | 0.00 | 59 | 1014.1 |
| 20260507070325 | 47 | 138 | 0.0 | 2.0 | 0.00 | 0.00 | 0.00 | 58 | 1014.2 |
| 20260507065335 | 47 | 189 | 0.0 | 2.0 | 0.00 | 0.00 | 0.00 | 57 | 1014.4 |
| 20260507064341 | 47 | 178 | 0.0 | 1.0 | 0.00 | 0.00 | 0.00 | 55 | 1014.6 |
| 20260507063350 | 47 | 216 | 0.0 | 2.0 | 0.00 | 0.00 | 0.00 | 53 | 1014.6 |
| 20260507062333 | 46 | 160 | 0.0 | 1.0 | 0.00 | 0.00 | 0.00 | 53 | 1014.7 |
| 20260507061336 | 46 | 161 | 0.0 | 0.0 | 0.00 | 0.00 | 0.00 | 52 | 1014.8 |
| 20260507060347 | 46 | 161 | 0.0 | 0.0 | 0.00 | 0.00 | 0.00 | 51 | 1014.9 |
| 20260507055332 | 47 | 161 | 0.0 | 0.0 | 0.00 | 0.00 | 0.00 | 50 | 1014.9 |
| 20260507054337 | 47 | 161 | 0.0 | 0.0 | 0.00 | 0.00 | 0.00 | 47 | 1014.9 |
| 20260507053349 | 48 | 161 | 0.0 | 0.0 | 0.00 | 0.00 | 0.00 | 46 | 1014.9 |
| 20260507052336 | 48 | 161 | 0.0 | 0.0 | 0.00 | 0.00 | 0.00 | 45 | 1014.9 |
| 20260507051326 | 48 | 161 | 0.0 | 0.0 | 0.00 | 0.00 | 0.00 | 45 | 1015.0 |
| 20260507050339 | 48 | 161 | 0.0 | 0.0 | 0.00 | 0.00 | 0.00 | 45 | 1015.0 |
| 20260507045344 | 48 | 159 | 0.0 | 0.0 | 0.00 | 0.00 | 0.00 | 45 | 1015.0 |
| 20260507044351 | 47 | 159 | 0.0 | 0.0 | 0.00 | 0.00 | 0.00 | 47 | 1015.0 |
| 20260507043331 | 45 | 159 | 0.0 | 0.0 | 0.00 | 0.00 | 0.00 | 50 | 1015.1 |
| 20260507042328 | 44 | 159 | 0.0 | 0.0 | 0.00 | 0.00 | 0.00 | 54 | 1015.2 |
| 20260507041337 | 45 | 159 | 0.0 | 0.0 | 0.00 | 0.00 | 0.00 | 56 | 1015.2 |
| 20260507040337 | 45 | 159 | 0.0 | 0.0 | 0.00 | 0.00 | 0.00 | 54 | 1015.3 |
| 20260507035326 | 45 | 159 | 0.0 | 0.0 | 0.00 | 0.00 | 0.00 | 53 | 1015.4 |
| 20260507034346 | 46 | 159 | 0.0 | 0.0 | 0.00 | 0.00 | 0.00 | 51 | 1015.4 |
| 20260507033332 | 46 | 159 | 0.0 | 0.0 | 0.00 | 0.00 | 0.00 | 51 | 1015.5 |
| 20260507032324 | 47 | 159 | 0.0 | 0.0 | 0.00 | 0.00 | 0.00 | 48 | 1015.5 |
| 20260507031332 | 47 | 159 | 0.0 | 0.0 | 0.00 | 0.00 | 0.00 | 47 | 1015.5 |
| 20260507030322 | 47 | 159 | 0.0 | 0.0 | 0.00 | 0.00 | 0.00 | 48 | 1015.5 |
| 20260507025350 | 47 | 311 | 0.0 | 0.0 | 0.00 | 0.00 | 0.00 | 49 | 1015.5 |
| 20260507024333 | 48 | 311 | 0.0 | 0.0 | 0.00 | 0.00 | 0.00 | 47 | 1015.4 |
| 20260507023401 | 48 | 311 | 0.0 | 0.0 | 0.00 | 0.00 | 0.00 | 47 | 1015.3 |
| 20260507022324 | 49 | 311 | 0.0 | 0.0 | 0.00 | 0.00 | 0.00 | 44 | 1015.3 |
| 20260507021347 | 50 | 311 | 0.0 | 0.0 | 0.00 | 0.00 | 0.00 | 43 | 1015.2 |
| 20260507020329 | 51 | 311 | 0.0 | 0.0 | 0.00 | 0.00 | 0.00 | 42 | 1015.2 |
| 20260507015342 | 52 | 311 | 0.0 | 0.0 | 0.00 | 0.00 | 0.00 | 40 | 1015.2 |
| 20260507014347 | 53 | 311 | 0.0 | 0.0 | 0.00 | 0.00 | 0.00 | 37 | 1015.2 |
| 20260507013329 | 54 | 311 | 0.0 | 0.0 | 0.00 | 0.00 | 0.00 | 37 | 1015.1 |
| 20260507012339 | 56 | 311 | 0.0 | 0.0 | 0.00 | 0.00 | 0.00 | 34 | 1015.0 |
| 20260507011344 | 57 | 349 | 0.0 | 0.0 | 0.00 | 0.00 | 0.00 | 32 | 1015.1 |
| 20260507010355 | 57 | 349 | 0.0 | 1.0 | 0.00 | 0.00 | 0.00 | 30 | 1015.1 |
| 20260507005331 | 58 | 125 | 0.0 | 2.0 | 0.00 | 0.00 | 0.00 | 29 | 1015.1 |
| 20260507004340 | 58 | 351 | 0.0 | 3.0 | 0.00 | 0.00 | 0.00 | 29 | 1015.1 |
| 20260507003332 | 58 | 193 | 1.0 | 3.0 | 0.00 | 0.00 | 0.00 | 27 | 1015.2 |
| 20260507002324 | 59 | 349 | 2.0 | 4.0 | 0.00 | 0.00 | 0.00 | 28 | 1015.2 |
| 20260507001328 | 60 | 7 | 1.0 | 6.0 | 0.00 | 0.00 | 0.00 | 28 | 1015.3 |
| 20260507000336 | 60 | 142 | 2.0 | 5.0 | 0.00 | 0.00 | 0.00 | 26 | 1015.4 |
| 20260506235327 | 60 | 264 | 2.0 | 7.0 | 0.00 | 0.00 | 0.00 | 27 | 1015.4 |
| 20260506234404 | 61 | 225 | 0.0 | 8.0 | 0.00 | 0.00 | 0.00 | 26 | 1015.6 |
| 20260506233334 | 62 | 124 | 1.0 | 8.0 | 0.00 | 0.00 | 0.00 | 25 | 1015.7 |
| 20260506232324 | 63 | 126 | 0.0 | 5.0 | 0.00 | 0.00 | 0.00 | 25 | 1015.6 |
| 20260506231329 | 63 | 175 | 2.0 | 6.0 | 0.00 | 0.00 | 0.00 | 23 | 1015.7 |
| 20260506230337 | 63 | 18 | 0.0 | 4.0 | 0.00 | 0.00 | 0.00 | 26 | 1015.9 |